Time;durP1;ratioP1;P1;durP2;ratioP2;P2;SDS_P1;SDS_P2;PMS_P1;PMS_P2;Temp;Humidity;BMP_temperature;BMP_pressure;BME280_temperature;BME280_humidity;BME280_pressure;Samples;Min_cycle;Max_cycle;Signal;HPM_P1;HPM_P2
2023/10/28 00:01:42;;;;;;;5.62;2.55;;;;;;;;;;4335252;32;317115;-83
2023/10/28 00:04:10;;;;;;;8.55;2.83;;;;;;;;;;4344653;32;330736;-84
2023/10/28 00:06:39;;;;;;;13.38;3.33;;;;;;;;;;4328217;32;317455;-86
2023/10/28 00:09:05;;;;;;;16.50;2.75;;;;;;;;;;4356649;32;318410;-87
2023/10/28 00:11:32;;;;;;;8.27;2.28;;;;;;;;;;4334296;32;318304;-85
2023/10/28 00:14:00;;;;;;;5.55;2.95;;;;;;;;;;4345706;32;317355;-84
2023/10/28 00:16:26;;;;;;;8.50;3.00;;;;;;;;;;4336514;32;317539;-83
2023/10/28 00:18:53;;;;;;;7.90;2.03;;;;;;;;;;4337130;32;317392;-86
2023/10/28 00:21:21;;;;;;;10.75;2.15;;;;;;;;;;4344898;32;317204;-85
2023/10/28 00:23:48;;;;;;;6.90;1.87;;;;;;;;;;4333770;32;318423;-86
2023/10/28 00:26:14;;;;;;;6.87;2.33;;;;;;;;;;4343824;32;316835;-84
2023/10/28 00:28:41;;;;;;;9.95;2.62;;;;;;;;;;4327355;32;318464;-84
2023/10/28 00:31:08;;;;;;;7.93;2.70;;;;;;;;;;4345004;32;316427;-84
2023/10/28 00:33:35;;;;;;;5.25;2.00;;;;;;;;;;4333649;32;317584;-84
2023/10/28 00:36:07;;;;;;;4.97;2.37;;;;;;;;;;4345822;32;317688;-86
2023/10/28 00:38:35;;;;;;;10.00;2.62;;;;;;;;;;4307854;32;317355;-87
2023/10/28 00:41:02;;;;;;;9.93;2.92;;;;;;;;;;4334362;32;318372;-83
2023/10/28 00:43:28;;;;;;;5.15;2.37;;;;;;;;;;4335121;32;317217;-84
2023/10/28 00:45:56;;;;;;;6.22;2.50;;;;;;;;;;4343971;32;317520;-83
2023/10/28 00:48:23;;;;;;;10.90;3.33;;;;;;;;;;4344256;32;317416;-83
2023/10/28 00:50:50;;;;;;;8.43;3.45;;;;;;;;;;4318261;32;418094;-83
2023/10/28 00:53:18;;;;;;;6.85;2.95;;;;;;;;;;4343953;32;316901;-86
2023/10/28 00:55:49;;;;;;;6.75;2.10;;;;;;;;;;4334828;32;317652;-85
2023/10/28 00:58:17;;;;;;;6.10;2.37;;;;;;;;;;4343779;32;317195;-84
2023/10/28 01:00:44;;;;;;;4.93;2.55;;;;;;;;;;4327198;32;317415;-84
2023/10/28 01:03:10;;;;;;;8.23;2.90;;;;;;;;;;4343744;32;317189;-86
2023/10/28 01:05:37;;;;;;;5.25;2.97;;;;;;;;;;4333055;32;317263;-83
2023/10/28 01:08:04;;;;;;;7.87;2.55;;;;;;;;;;4343512;32;316887;-84
2023/10/28 01:10:33;;;;;;;6.65;3.42;;;;;;;;;;4332094;32;317387;-83
2023/10/28 01:13:04;;;;;;;7.45;3.35;;;;;;;;;;4345462;32;317553;-84
2023/10/28 01:15:31;;;;;;;7.18;5.05;;;;;;;;;;4333718;32;317604;-84
2023/10/28 01:17:58;;;;;;;10.75;5.03;;;;;;;;;;4344779;32;317562;-84
2023/10/28 01:20:24;;;;;;;9.93;4.57;;;;;;;;;;4345497;32;318620;-84
2023/10/28 01:22:53;;;;;;;7.15;4.22;;;;;;;;;;4317868;32;416541;-84
2023/10/28 01:25:20;;;;;;;11.18;3.75;;;;;;;;;;4344766;32;316891;-84
2023/10/28 01:27:47;;;;;;;8.18;3.45;;;;;;;;;;4333590;32;318291;-86
2023/10/28 01:30:16;;;;;;;7.12;2.97;;;;;;;;;;4346918;32;317557;-84
2023/10/28 01:32:44;;;;;;;5.60;3.22;;;;;;;;;;4326722;32;317379;-84
2023/10/28 01:35:11;;;;;;;4.95;2.95;;;;;;;;;;4343997;32;317534;-84
2023/10/28 01:37:38;;;;;;;16.02;3.30;;;;;;;;;;4320955;32;317431;-84
2023/10/28 01:40:12;;;;;;;6.10;3.15;;;;;;;;;;4329816;32;318354;-84
2023/10/28 01:42:39;;;;;;;6.20;2.75;;;;;;;;;;4297606;33;317377;-84
2023/10/28 01:45:07;;;;;;;10.77;3.22;;;;;;;;;;4320825;33;317798;-84
2023/10/28 01:47:34;;;;;;;8.70;2.78;;;;;;;;;;4321025;32;318742;-85
2023/10/28 01:50:00;;;;;;;4.18;2.50;;;;;;;;;;4328747;32;317379;-86
2023/10/28 01:52:28;;;;;;;6.57;2.72;;;;;;;;;;4329982;32;317220;-83
2023/10/28 01:54:55;;;;;;;12.68;2.50;;;;;;;;;;4335313;32;317394;-87
2023/10/28 01:57:24;;;;;;;21.45;3.33;;;;;;;;;;4325777;32;318691;-83
2023/10/28 01:59:52;;;;;;;8.48;2.53;;;;;;;;;;4314838;32;419078;-84
2023/10/28 02:02:19;;;;;;;8.80;2.67;;;;;;;;;;4329785;32;317796;-84
2023/10/28 02:04:46;;;;;;;7.55;2.42;;;;;;;;;;4312035;32;317399;-84
2023/10/28 02:07:12;;;;;;;9.75;3.72;;;;;;;;;;4337438;32;317199;-85
2023/10/28 02:09:39;;;;;;;9.55;2.42;;;;;;;;;;4332818;32;332367;-85
2023/10/28 02:12:06;;;;;;;6.82;2.85;;;;;;;;;;4344450;32;317396;-85
2023/10/28 02:14:35;;;;;;;4.25;2.28;;;;;;;;;;4331157;32;317296;-84
2023/10/28 02:17:02;;;;;;;6.75;2.22;;;;;;;;;;4344552;32;317505;-85
2023/10/28 02:19:30;;;;;;;11.50;3.30;;;;;;;;;;4332980;32;317427;-85
2023/10/28 02:21:58;;;;;;;8.23;2.97;;;;;;;;;;4343202;32;318519;-84
2023/10/28 02:24:25;;;;;;;5.12;2.50;;;;;;;;;;4343510;32;337078;-85
2023/10/28 02:26:52;;;;;;;11.48;2.30;;;;;;;;;;4325523;32;418615;-84
2023/10/28 02:29:19;;;;;;;7.15;2.78;;;;;;;;;;4349748;32;318410;-86
2023/10/28 02:31:48;;;;;;;4.55;2.15;;;;;;;;;;4333589;32;317211;-89
2023/10/28 02:34:15;;;;;;;9.88;2.10;;;;;;;;;;4344235;32;317397;-85
2023/10/28 02:36:42;;;;;;;6.37;3.50;;;;;;;;;;4324424;32;329154;-85
2023/10/28 02:39:09;;;;;;;9.35;2.75;;;;;;;;;;4344583;32;317480;-85
2023/10/28 02:41:38;;;;;;;6.35;1.87;;;;;;;;;;4333382;32;317579;-85
2023/10/28 02:44:05;;;;;;;10.98;2.40;;;;;;;;;;4343806;32;317356;-85
2023/10/28 02:46:32;;;;;;;3.60;2.42;;;;;;;;;;4328273;32;318670;-85
2023/10/28 02:49:00;;;;;;;6.62;2.55;;;;;;;;;;4343056;32;317481;-83
2023/10/28 02:51:28;;;;;;;8.20;2.87;;;;;;;;;;4337569;32;317434;-85
2023/10/28 02:53:54;;;;;;;9.32;2.67;;;;;;;;;;4346021;32;317306;-85
2023/10/28 02:56:21;;;;;;;8.15;3.15;;;;;;;;;;4345966;32;317569;-86
2023/10/28 02:58:48;;;;;;;10.35;2.50;;;;;;;;;;4333464;32;317737;-86
2023/10/28 03:01:14;;;;;;;3.75;2.20;;;;;;;;;;4346203;32;318504;-83
2023/10/28 03:03:43;;;;;;;4.30;2.10;;;;;;;;;;4344188;32;317658;-84
2023/10/28 03:06:11;;;;;;;7.87;2.67;;;;;;;;;;4360077;32;316298;-87
2023/10/28 03:08:38;;;;;;;10.82;2.15;;;;;;;;;;4337547;32;332685;-87
2023/10/28 03:11:05;;;;;;;8.27;2.33;;;;;;;;;;4347338;32;318184;-85
2023/10/28 03:13:32;;;;;;;7.97;2.45;;;;;;;;;;4335071;32;317159;-86
2023/10/28 03:15:58;;;;;;;3.40;2.12;;;;;;;;;;4345652;32;317126;-85
2023/10/28 03:18:25;;;;;;;6.05;2.62;;;;;;;;;;4345975;32;317666;-86
2023/10/28 03:20:55;;;;;;;6.47;2.60;;;;;;;;;;4327260;32;418237;-87
2023/10/28 03:23:23;;;;;;;9.20;4.57;;;;;;;;;;4346380;32;317343;-87
2023/10/28 03:25:50;;;;;;;6.03;2.78;;;;;;;;;;4333598;32;357529;-86
2023/10/28 03:28:16;;;;;;;12.90;4.80;;;;;;;;;;4346440;32;318675;-86
2023/10/28 03:30:43;;;;;;;9.68;5.32;;;;;;;;;;4329149;32;318466;-86
2023/10/28 03:33:10;;;;;;;23.65;15.00;;;;;;;;;;4346050;32;317621;-87
2023/10/28 03:35:37;;;;;;;35.50;26.85;;;;;;;;;;4333705;32;318694;-85
2023/10/28 03:38:03;;;;;;;21.10;18.87;;;;;;;;;;4345280;32;319277;-84
2023/10/28 03:40:31;;;;;;;15.25;11.73;;;;;;;;;;4332771;32;319501;-86
2023/10/28 03:42:58;;;;;;;19.77;11.23;;;;;;;;;;4343854;32;319404;-85
2023/10/28 03:45:25;;;;;;;14.80;11.35;;;;;;;;;;4345547;32;318951;-86
2023/10/28 03:47:52;;;;;;;19.30;12.73;;;;;;;;;;4333022;32;419882;-85
2023/10/28 03:50:20;;;;;;;23.42;11.85;;;;;;;;;;4343589;32;320059;-86
2023/10/28 03:52:46;;;;;;;15.60;9.90;;;;;;;;;;4328624;32;319379;-86
2023/10/28 03:55:13;;;;;;;16.05;11.25;;;;;;;;;;4344687;32;320400;-85
2023/10/28 03:57:41;;;;;;;16.12;11.32;;;;;;;;;;4334838;32;347499;-86
2023/10/28 04:00:11;;;;;;;16.40;11.90;;;;;;;;;;4344791;32;319123;-86
2023/10/28 04:02:38;;;;;;;17.15;11.27;;;;;;;;;;4327162;32;319833;-86
2023/10/28 04:05:04;;;;;;;14.85;10.50;;;;;;;;;;4344061;32;319595;-85
2023/10/28 04:07:32;;;;;;;17.95;11.55;;;;;;;;;;4334902;32;319629;-86
2023/10/28 04:10:03;;;;;;;10.52;6.70;;;;;;;;;;4344022;32;319182;-87
2023/10/28 04:12:31;;;;;;;22.35;12.23;;;;;;;;;;4334349;32;318239;-87
2023/10/28 04:14:59;;;;;;;30.60;13.62;;;;;;;;;;4339617;32;319163;-84
2023/10/28 04:17:30;;;;;;;28.48;19.02;;;;;;;;;;4335484;32;319569;-86
2023/10/28 04:19:57;;;;;;;22.55;9.82;;;;;;;;;;4345143;32;319356;-84
2023/10/28 04:22:23;;;;;;;12.60;7.62;;;;;;;;;;4346067;32;318324;-83
2023/10/28 04:24:51;;;;;;;12.30;8.48;;;;;;;;;;4310143;32;419196;-84
2023/10/28 04:27:17;;;;;;;23.12;15.43;;;;;;;;;;4330343;32;318657;-85
2023/10/28 04:29:45;;;;;;;19.65;12.27;;;;;;;;;;4319632;32;319532;-86
2023/10/28 04:32:13;;;;;;;16.65;9.75;;;;;;;;;;4332040;32;318724;-84
2023/10/28 04:34:40;;;;;;;12.20;5.03;;;;;;;;;;4307969;32;318459;-85
2023/10/28 04:37:07;;;;;;;11.10;4.97;;;;;;;;;;4336598;32;318249;-84
2023/10/28 04:39:34;;;;;;;10.23;6.90;;;;;;;;;;4334056;32;318455;-87
2023/10/28 04:42:00;;;;;;;7.53;4.00;;;;;;;;;;4334486;32;318380;-86
2023/10/28 04:44:27;;;;;;;13.95;5.43;;;;;;;;;;4308322;32;317421;-86
2023/10/28 04:46:54;;;;;;;8.57;3.97;;;;;;;;;;4335476;32;318504;-87
2023/10/28 04:49:22;;;;;;;7.00;3.12;;;;;;;;;;4345291;32;317156;-86
2023/10/28 04:51:48;;;;;;;6.10;3.47;;;;;;;;;;4336360;32;317117;-86
2023/10/28 04:54:16;;;;;;;12.40;4.28;;;;;;;;;;4342433;32;317269;-84
2023/10/28 04:56:43;;;;;;;8.20;3.30;;;;;;;;;;4314714;32;318586;-85
2023/10/28 04:59:10;;;;;;;12.77;3.35;;;;;;;;;;4330377;32;317330;-86
2023/10/28 05:01:37;;;;;;;7.47;3.58;;;;;;;;;;4321907;32;318161;-86
2023/10/28 05:04:03;;;;;;;9.27;3.20;;;;;;;;;;4329896;32;317722;-86
2023/10/28 05:06:32;;;;;;;9.77;3.40;;;;;;;;;;4312924;32;386894;-86
2023/10/28 05:08:58;;;;;;;14.95;3.95;;;;;;;;;;4327489;32;317255;-86
2023/10/28 05:11:25;;;;;;;8.25;3.40;;;;;;;;;;4330994;32;318454;-86
2023/10/28 05:13:52;;;;;;;11.57;3.37;;;;;;;;;;4305580;32;417287;-83
2023/10/28 05:16:19;;;;;;;14.15;3.85;;;;;;;;;;4331230;32;318488;-86
2023/10/28 05:18:46;;;;;;;8.82;3.10;;;;;;;;;;4313798;32;318484;-86
2023/10/28 05:21:14;;;;;;;11.43;4.18;;;;;;;;;;4327132;32;317173;-86
2023/10/28 05:23:42;;;;;;;11.97;4.40;;;;;;;;;;4320035;32;318430;-86
2023/10/28 05:26:09;;;;;;;13.10;7.15;;;;;;;;;;4329469;32;318338;-86
2023/10/28 05:28:36;;;;;;;9.32;5.43;;;;;;;;;;4313521;32;318531;-86
2023/10/28 05:31:03;;;;;;;15.38;7.28;;;;;;;;;;4331500;32;317716;-85
2023/10/28 05:33:30;;;;;;;13.95;7.57;;;;;;;;;;4332222;32;318329;-84
2023/10/28 05:35:57;;;;;;;23.47;10.50;;;;;;;;;;4338097;32;318061;-86
2023/10/28 05:38:23;;;;;;;24.10;12.67;;;;;;;;;;4357553;32;319639;-84
2023/10/28 05:40:51;;;;;;;16.85;10.60;;;;;;;;;;4345623;32;323834;-85
2023/10/28 05:43:18;;;;;;;21.55;11.23;;;;;;;;;;4358332;32;360372;-86
2023/10/28 05:45:45;;;;;;;21.90;11.25;;;;;;;;;;4358969;32;319068;-84
2023/10/28 05:48:11;;;;;;;23.53;11.27;;;;;;;;;;4365874;32;319131;-86
2023/10/28 05:50:38;;;;;;;24.67;12.33;;;;;;;;;;4341566;32;335147;-85
2023/10/28 05:53:08;;;;;;;17.60;11.70;;;;;;;;;;4363631;32;318772;-87
2023/10/28 05:55:35;;;;;;;22.50;11.65;;;;;;;;;;4344934;32;319206;-87
2023/10/28 05:58:05;;;;;;;18.48;10.85;;;;;;;;;;4349023;32;319662;-82
2023/10/28 06:00:31;;;;;;;21.55;10.57;;;;;;;;;;4336987;32;318528;-84
2023/10/28 06:02:58;;;;;;;21.17;10.50;;;;;;;;;;4345897;32;319522;-85
2023/10/28 06:05:25;;;;;;;25.48;10.65;;;;;;;;;;4347319;32;319221;-84
2023/10/28 06:07:52;;;;;;;18.17;10.83;;;;;;;;;;4333552;32;417986;-85
2023/10/28 06:10:18;;;;;;;17.97;10.73;;;;;;;;;;4347126;32;320213;-85
2023/10/28 06:12:45;;;;;;;28.65;11.65;;;;;;;;;;4330703;32;319094;-85
2023/10/28 06:15:14;;;;;;;20.03;10.53;;;;;;;;;;4345980;32;319349;-86
2023/10/28 06:17:40;;;;;;;23.35;13.15;;;;;;;;;;4335253;32;319225;-87
2023/10/28 06:20:08;;;;;;;31.20;16.33;;;;;;;;;;4346607;32;319512;-86
2023/10/28 06:22:35;;;;;;;40.83;21.50;;;;;;;;;;4331108;32;319700;-91
2023/10/28 06:25:04;;;;;;;39.95;20.77;;;;;;;;;;4347138;32;318746;-87
2023/10/28 06:27:31;;;;;;;29.77;18.17;;;;;;;;;;4338595;32;319184;-88
2023/10/28 06:29:57;;;;;;;30.83;17.25;;;;;;;;;;4327975;32;318593;-87
2023/10/28 06:32:27;;;;;;;30.37;16.85;;;;;;;;;;4348595;32;341738;-89
2023/10/28 06:34:54;;;;;;;25.95;15.13;;;;;;;;;;4331179;32;419126;-89
2023/10/28 06:37:21;;;;;;;25.02;12.77;;;;;;;;;;4335117;32;319316;-89
2023/10/28 06:39:48;;;;;;;33.15;13.43;;;;;;;;;;4340463;32;319253;-91
2023/10/28 06:42:15;;;;;;;39.10;14.60;;;;;;;;;;4350914;32;319491;-88
2023/10/28 06:44:43;;;;;;;29.35;15.02;;;;;;;;;;4324738;32;319917;-89
2023/10/28 06:47:10;;;;;;;25.20;13.52;;;;;;;;;;4350330;32;318779;-90
2023/10/28 06:49:38;;;;;;;26.33;13.50;;;;;;;;;;4339078;32;319140;-88
2023/10/28 06:52:05;;;;;;;29.37;12.63;;;;;;;;;;4349424;32;319875;-89
2023/10/28 06:54:32;;;;;;;32.45;13.52;;;;;;;;;;4339264;32;318776;-88
2023/10/28 06:56:59;;;;;;;21.48;13.48;;;;;;;;;;4346164;32;318631;-88
2023/10/28 06:59:26;;;;;;;20.77;11.77;;;;;;;;;;4337302;32;318722;-89
2023/10/28 07:01:53;;;;;;;30.92;14.48;;;;;;;;;;4344555;32;319294;-88
2023/10/28 07:04:22;;;;;;;29.65;17.17;;;;;;;;;;4346822;32;318572;-88
2023/10/28 07:06:51;;;;;;;35.40;18.73;;;;;;;;;;4333099;32;319335;-88
2023/10/28 07:09:18;;;;;;;30.33;15.60;;;;;;;;;;4334689;32;319246;-86
2023/10/28 07:11:45;;;;;;;27.08;14.95;;;;;;;;;;4336823;32;319618;-86
2023/10/28 07:14:12;;;;;;;20.85;14.70;;;;;;;;;;4345735;32;319405;-88
2023/10/28 07:16:42;;;;;;;21.63;12.50;;;;;;;;;;4326132;32;332460;-89
2023/10/28 07:19:09;;;;;;;20.88;11.23;;;;;;;;;;4347878;32;319817;-88
2023/10/28 07:21:36;;;;;;;14.63;8.75;;;;;;;;;;4340052;32;319162;-89
2023/10/28 07:24:20;;;;;;;17.42;8.50;;;;;;;;;;4350805;32;318203;-90
2023/10/28 07:26:47;;;;;;;14.35;8.02;;;;;;;;;;4333347;32;318152;-88
2023/10/28 07:29:14;;;;;;;16.02;7.18;;;;;;;;;;4362169;32;317450;-88
2023/10/28 07:31:40;;;;;;;15.18;6.25;;;;;;;;;;4345655;32;318147;-89
2023/10/28 07:34:08;;;;;;;13.75;6.90;;;;;;;;;;4361423;32;318093;-89
2023/10/28 07:36:35;;;;;;;18.08;6.65;;;;;;;;;;4336329;32;318138;-84
2023/10/28 07:39:02;;;;;;;20.10;5.97;;;;;;;;;;4346842;32;355863;-85
2023/10/28 07:41:31;;;;;;;9.85;5.00;;;;;;;;;;4337473;32;318253;-83
2023/10/28 07:43:58;;;;;;;9.40;4.60;;;;;;;;;;4344170;32;317269;-84
2023/10/28 07:46:25;;;;;;;12.43;4.82;;;;;;;;;;4344323;32;317474;-84
2023/10/28 07:48:53;;;;;;;10.85;6.30;;;;;;;;;;4325606;32;419343;-87
2023/10/28 07:51:20;;;;;;;8.25;5.45;;;;;;;;;;4344825;32;318951;-86
2023/10/28 07:53:49;;;;;;;14.50;5.70;;;;;;;;;;4333688;32;317340;-86
2023/10/28 07:56:16;;;;;;;11.20;5.05;;;;;;;;;;4340544;32;318717;-85
2023/10/28 07:58:44;;;;;;;19.00;5.28;;;;;;;;;;4320803;32;317684;-87
2023/10/28 08:01:15;;;;;;;12.63;5.53;;;;;;;;;;4346745;32;318429;-85
2023/10/28 08:03:43;;;;;;;10.98;5.03;;;;;;;;;;4335645;32;318261;-85
2023/10/28 08:06:11;;;;;;;13.65;6.05;;;;;;;;;;4336806;32;318247;-85
2023/10/28 08:08:39;;;;;;;15.10;5.95;;;;;;;;;;4332037;32;318760;-81
2023/10/28 08:11:08;;;;;;;14.30;6.18;;;;;;;;;;4342783;32;318639;-82
2023/10/28 08:13:35;;;;;;;11.77;5.82;;;;;;;;;;4333361;32;318469;-81
2023/10/28 08:16:03;;;;;;;15.32;6.10;;;;;;;;;;4343058;32;318257;-88
2023/10/28 08:18:32;;;;;;;12.20;6.37;;;;;;;;;;4332469;32;318817;-87
2023/10/28 08:20:59;;;;;;;12.32;5.53;;;;;;;;;;4335413;32;317561;-86
2023/10/28 08:23:28;;;;;;;17.83;6.00;;;;;;;;;;4332062;32;351457;-81
2023/10/28 08:25:55;;;;;;;15.23;5.05;;;;;;;;;;4345875;32;318242;-80
2023/10/28 08:28:22;;;;;;;15.13;5.15;;;;;;;;;;4342073;32;318455;-77
2023/10/28 08:30:48;;;;;;;12.13;5.18;;;;;;;;;;4325957;32;318473;-83
2023/10/28 08:33:17;;;;;;;14.55;5.37;;;;;;;;;;4359789;32;318467;-80
2023/10/28 08:35:44;;;;;;;15.30;4.75;;;;;;;;;;4325482;32;318323;-80
2023/10/28 08:38:10;;;;;;;16.58;3.45;;;;;;;;;;4349793;32;318407;-81
2023/10/28 08:40:37;;;;;;;17.58;4.55;;;;;;;;;;4339524;32;318354;-81
2023/10/28 08:43:05;;;;;;;17.48;5.05;;;;;;;;;;4355624;32;318267;-81
2023/10/28 08:45:32;;;;;;;16.20;5.47;;;;;;;;;;4349710;32;318443;-84
2023/10/28 08:47:59;;;;;;;12.77;4.43;;;;;;;;;;4359390;32;318842;-80
2023/10/28 08:50:27;;;;;;;7.30;4.45;;;;;;;;;;4349280;32;318438;-78
2023/10/28 08:52:56;;;;;;;15.07;4.07;;;;;;;;;;4351105;32;316711;-84
2023/10/28 08:55:24;;;;;;;14.73;4.37;;;;;;;;;;4353110;32;318503;-79
2023/10/28 08:57:51;;;;;;;10.48;4.35;;;;;;;;;;4325498;32;418600;-82
2023/10/28 09:00:20;;;;;;;7.95;4.07;;;;;;;;;;4347867;32;318297;-81
2023/10/28 09:02:50;;;;;;;11.85;3.47;;;;;;;;;;4340417;32;317331;-83
2023/10/28 09:05:17;;;;;;;11.35;3.90;;;;;;;;;;4359199;32;349798;-84
2023/10/28 09:07:45;;;;;;;11.90;3.20;;;;;;;;;;4348481;32;318437;-80
2023/10/28 09:10:12;;;;;;;19.45;4.00;;;;;;;;;;4346339;32;318458;-84
2023/10/28 09:12:39;;;;;;;9.90;3.65;;;;;;;;;;4330253;32;318199;-83
2023/10/28 09:15:08;;;;;;;17.37;3.70;;;;;;;;;;4345805;32;317497;-86
2023/10/28 09:17:35;;;;;;;14.77;4.45;;;;;;;;;;4334482;32;317820;-88
2023/10/28 09:20:09;;;;;;;16.85;3.75;;;;;;;;;;4344679;32;318054;-86
2023/10/28 09:22:37;;;;;;;10.57;3.45;;;;;;;;;;4319551;32;317682;-87
2023/10/28 09:25:06;;;;;;;11.35;4.32;;;;;;;;;;4354958;32;318310;-89
2023/10/28 09:27:33;;;;;;;9.77;4.20;;;;;;;;;;4333534;32;318560;-85
2023/10/28 09:30:05;;;;;;;9.75;2.83;;;;;;;;;;4338612;32;317207;-87
2023/10/28 09:32:33;;;;;;;7.20;2.60;;;;;;;;;;4326183;32;317428;-86
2023/10/28 09:35:05;;;;;;;9.13;3.05;;;;;;;;;;4342606;32;317142;-85
2023/10/28 09:37:33;;;;;;;6.22;2.65;;;;;;;;;;4326242;32;316591;-87
2023/10/28 09:40:02;;;;;;;8.25;2.58;;;;;;;;;;4328625;32;317829;-85
2023/10/28 09:42:31;;;;;;;12.20;3.40;;;;;;;;;;4324469;32;317563;-84
2023/10/28 09:44:58;;;;;;;10.73;2.70;;;;;;;;;;4339390;32;318597;-83
2023/10/28 09:47:30;;;;;;;12.37;3.85;;;;;;;;;;4343660;32;318452;-85
2023/10/28 09:50:04;;;;;;;10.27;3.17;;;;;;;;;;4329820;32;417526;-84
2023/10/28 09:52:32;;;;;;;10.32;2.62;;;;;;;;;;4336380;32;318455;-86
2023/10/28 09:55:05;;;;;;;6.60;3.00;;;;;;;;;;4341944;32;318393;-84
2023/10/28 09:57:33;;;;;;;10.45;3.00;;;;;;;;;;4337662;32;317198;-85
2023/10/28 10:00:05;;;;;;;7.43;2.28;;;;;;;;;;4353276;32;317987;-85
2023/10/28 10:02:52;;;;;;;5.72;2.62;;;;;;;;;;4341313;32;317143;-84
2023/10/28 10:05:26;;;;;;;8.90;2.50;;;;;;;;;;4346975;32;316699;-86
2023/10/28 10:07:53;;;;;;;8.73;2.60;;;;;;;;;;4333702;32;418141;-86
2023/10/28 10:10:21;;;;;;;10.23;3.47;;;;;;;;;;4346086;32;316461;-86
2023/10/28 10:12:53;;;;;;;7.20;2.78;;;;;;;;;;4328706;32;334865;-87
2023/10/28 10:15:21;;;;;;;4.47;2.33;;;;;;;;;;4341527;32;317696;-86
2023/10/28 10:17:59;;;;;;;9.40;3.08;;;;;;;;;;4337430;32;317705;-86
2023/10/28 10:20:27;;;;;;;7.28;2.92;;;;;;;;;;4341582;32;318016;-86
2023/10/28 10:23:00;;;;;;;8.50;2.72;;;;;;;;;;4337925;32;349433;-89
2023/10/28 10:25:34;;;;;;;11.38;2.30;;;;;;;;;;4334760;32;317380;-85
2023/10/28 10:28:14;;;;;;;10.95;3.10;;;;;;;;;;4344389;32;317817;-85
2023/10/28 10:30:42;;;;;;;11.70;3.92;;;;;;;;;;4325634;32;355251;-85
2023/10/28 10:33:09;;;;;;;19.42;7.80;;;;;;;;;;4344956;32;318210;-82
2023/10/28 10:35:37;;;;;;;18.83;5.65;;;;;;;;;;4333456;32;317753;-83
2023/10/28 10:38:04;;;;;;;16.20;6.03;;;;;;;;;;4328853;32;317978;-90
2023/10/28 10:40:33;;;;;;;10.13;5.25;;;;;;;;;;4320486;32;318289;-81
2023/10/28 10:43:07;;;;;;;14.45;4.18;;;;;;;;;;4329666;32;318320;-84
2023/10/28 10:45:36;;;;;;;11.82;3.65;;;;;;;;;;4321892;32;318017;-87
2023/10/28 10:48:04;;;;;;;9.20;3.53;;;;;;;;;;4330533;32;318724;-86
2023/10/28 10:50:33;;;;;;;10.80;3.42;;;;;;;;;;4321034;32;316852;-85
2023/10/28 10:53:03;;;;;;;15.40;4.05;;;;;;;;;;4331121;32;318344;-84
2023/10/28 10:55:30;;;;;;;12.88;3.37;;;;;;;;;;4320496;32;318251;-86
2023/10/28 10:57:58;;;;;;;11.45;3.60;;;;;;;;;;4331080;32;318199;-87
2023/10/28 11:00:25;;;;;;;13.30;3.28;;;;;;;;;;4331646;32;318182;-85
2023/10/28 11:02:57;;;;;;;10.68;3.10;;;;;;;;;;4310649;32;418183;-83
2023/10/28 11:05:24;;;;;;;11.90;3.80;;;;;;;;;;4331414;32;318462;-87
2023/10/28 11:07:51;;;;;;;10.90;3.15;;;;;;;;;;4324067;32;417644;-88
2023/10/28 11:10:19;;;;;;;17.30;3.83;;;;;;;;;;4341146;32;318410;-83
2023/10/28 11:12:46;;;;;;;9.95;3.30;;;;;;;;;;4325386;32;318745;-82
2023/10/28 11:15:12;;;;;;;11.20;4.12;;;;;;;;;;4343175;32;317381;-84
2023/10/28 11:17:40;;;;;;;15.65;5.22;;;;;;;;;;4333665;32;318237;-86
2023/10/28 11:20:10;;;;;;;15.85;5.07;;;;;;;;;;4342398;32;318035;-86
2023/10/28 11:22:37;;;;;;;10.45;4.40;;;;;;;;;;4326714;32;318333;-83
2023/10/28 11:25:04;;;;;;;12.18;4.10;;;;;;;;;;4344093;32;317878;-86
2023/10/28 11:27:32;;;;;;;10.18;4.50;;;;;;;;;;4335062;32;317751;-85
2023/10/28 11:29:59;;;;;;;12.35;5.15;;;;;;;;;;4345120;32;335094;-84
2023/10/28 11:32:28;;;;;;;10.45;4.32;;;;;;;;;;4340870;32;318055;-84
2023/10/28 11:34:57;;;;;;;11.50;4.45;;;;;;;;;;4338861;32;318373;-87
2023/10/28 11:37:25;;;;;;;18.67;5.12;;;;;;;;;;4356781;32;318245;-86
2023/10/28 11:39:52;;;;;;;13.40;3.72;;;;;;;;;;4348181;32;419189;-86
2023/10/28 11:42:20;;;;;;;6.22;2.28;;;;;;;;;;4358838;32;349911;-86
2023/10/28 11:44:51;;;;;;;11.10;3.10;;;;;;;;;;4323376;32;316807;-85
2023/10/28 11:47:19;;;;;;;14.75;4.40;;;;;;;;;;4360814;32;317696;-83
2023/10/28 11:49:46;;;;;;;6.78;2.87;;;;;;;;;;4351327;32;318607;-83
2023/10/28 11:52:13;;;;;;;9.73;2.72;;;;;;;;;;4360892;32;317484;-87
2023/10/28 11:54:41;;;;;;;4.80;2.08;;;;;;;;;;4341045;32;317808;-84
2023/10/28 11:57:08;;;;;;;5.15;1.70;;;;;;;;;;4347268;32;317206;-84
2023/10/28 11:59:35;;;;;;;3.30;1.30;;;;;;;;;;4337242;32;317149;-84
2023/10/28 12:02:03;;;;;;;7.30;1.40;;;;;;;;;;4347158;32;317722;-83
2023/10/28 12:04:30;;;;;;;8.32;2.85;;;;;;;;;;4341923;32;317321;-87
2023/10/28 12:06:57;;;;;;;7.87;1.52;;;;;;;;;;4343895;32;317088;-87
2023/10/28 12:09:25;;;;;;;4.82;1.83;;;;;;;;;;4346436;32;316578;-88
2023/10/28 12:11:53;;;;;;;7.43;1.35;;;;;;;;;;4327753;32;317328;-89
2023/10/28 12:14:19;;;;;;;5.00;1.80;;;;;;;;;;4345567;32;317356;-87
2023/10/28 12:16:47;;;;;;;8.23;1.52;;;;;;;;;;4328496;32;317226;-88
2023/10/28 12:19:14;;;;;;;3.60;1.25;;;;;;;;;;4344531;32;317272;-85
2023/10/28 12:21:42;;;;;;;4.93;1.30;;;;;;;;;;4334674;32;317059;-87
2023/10/28 12:24:11;;;;;;;3.12;1.23;;;;;;;;;;4345357;32;317442;-88
2023/10/28 12:26:38;;;;;;;2.92;1.40;;;;;;;;;;4328161;32;317159;-87
2023/10/28 12:29:06;;;;;;;7.10;1.50;;;;;;;;;;4344744;32;316593;-89
2023/10/28 12:31:33;;;;;;;6.62;1.58;;;;;;;;;;4334038;32;317751;-86
2023/10/28 12:34:01;;;;;;;4.35;1.48;;;;;;;;;;4345219;32;317292;-87
2023/10/28 12:36:28;;;;;;;5.93;1.70;;;;;;;;;;4340383;32;317342;-86
2023/10/28 12:38:55;;;;;;;1.98;1.12;;;;;;;;;;4336275;32;317299;-86
2023/10/28 12:41:21;;;;;;;6.32;1.55;;;;;;;;;;4337273;32;316549;-87
2023/10/28 12:43:48;;;;;;;8.38;2.15;;;;;;;;;;4320528;32;317170;-86
2023/10/28 12:46:16;;;;;;;4.68;1.70;;;;;;;;;;4329679;32;317265;-86
2023/10/28 12:48:43;;;;;;;3.33;1.50;;;;;;;;;;4312848;32;317621;-84
2023/10/28 12:51:12;;;;;;;8.07;1.80;;;;;;;;;;4330320;32;317262;-94
2023/10/28 12:53:40;;;;;;;7.87;1.40;;;;;;;;;;4318107;32;316548;-84
2023/10/28 12:56:09;;;;;;;8.55;1.65;;;;;;;;;;4337411;32;349284;-86
2023/10/28 12:58:36;;;;;;;5.03;1.67;;;;;;;;;;4327499;32;316855;-83
2023/10/28 13:01:03;;;;;;;6.70;1.83;;;;;;;;;;4344664;32;317405;-85
2023/10/28 13:03:31;;;;;;;5.20;1.50;;;;;;;;;;4333970;32;317755;-83
2023/10/28 13:05:58;;;;;;;5.65;1.80;;;;;;;;;;4344050;32;317558;-87
2023/10/28 13:08:25;;;;;;;5.43;1.58;;;;;;;;;;4343043;32;317445;-88
2023/10/28 13:10:52;;;;;;;7.03;2.10;;;;;;;;;;4319121;32;417431;-84
2023/10/28 13:13:18;;;;;;;3.28;1.42;;;;;;;;;;4342554;32;316482;-84
2023/10/28 13:15:45;;;;;;;5.95;1.90;;;;;;;;;;4332257;32;317418;-90
2023/10/28 13:18:12;;;;;;;5.53;1.92;;;;;;;;;;4343153;32;316758;-89
2023/10/28 13:20:40;;;;;;;5.32;2.20;;;;;;;;;;4325220;32;319586;-89
2023/10/28 13:23:06;;;;;;;6.78;2.97;;;;;;;;;;4344846;32;317268;-89
2023/10/28 13:25:33;;;;;;;7.90;2.37;;;;;;;;;;4331772;32;317878;-87
2023/10/28 13:28:00;;;;;;;6.90;2.37;;;;;;;;;;4321751;32;317148;-86
2023/10/28 13:30:27;;;;;;;10.35;2.40;;;;;;;;;;4327159;32;354052;-85
2023/10/28 13:32:54;;;;;;;8.77;2.58;;;;;;;;;;4333733;32;325462;-86
2023/10/28 13:35:21;;;;;;;15.85;2.45;;;;;;;;;;4340573;32;317421;-85
2023/10/28 13:37:49;;;;;;;5.60;2.15;;;;;;;;;;4330983;32;353123;-88
2023/10/28 13:40:17;;;;;;;8.88;3.10;;;;;;;;;;4341315;32;317912;-87
2023/10/28 13:42:43;;;;;;;11.85;2.42;;;;;;;;;;4325843;32;317399;-85
2023/10/28 13:45:10;;;;;;;5.28;2.28;;;;;;;;;;4341671;32;318292;-88
2023/10/28 13:47:37;;;;;;;5.15;1.95;;;;;;;;;;4330463;32;317371;-88
2023/10/28 13:50:05;;;;;;;5.65;2.33;;;;;;;;;;4340269;32;345885;-89
2023/10/28 13:52:33;;;;;;;13.00;2.40;;;;;;;;;;4331113;32;317503;-86
2023/10/28 13:55:01;;;;;;;9.43;2.12;;;;;;;;;;4340572;32;319147;-84
2023/10/28 13:57:28;;;;;;;13.95;3.90;;;;;;;;;;4332023;32;317347;-86
2023/10/28 13:59:55;;;;;;;10.57;2.05;;;;;;;;;;4342353;32;318718;-88
2023/10/28 14:02:22;;;;;;;5.62;2.20;;;;;;;;;;4341689;32;319088;-87
2023/10/28 14:04:49;;;;;;;12.57;2.60;;;;;;;;;;4310400;32;317200;-85
2023/10/28 14:07:15;;;;;;;10.52;2.65;;;;;;;;;;4341756;32;318564;-86
2023/10/28 14:09:43;;;;;;;13.73;2.70;;;;;;;;;;4333314;32;318723;-89
2023/10/28 14:12:11;;;;;;;7.53;3.03;;;;;;;;;;4343098;32;318094;-86
2023/10/28 14:14:38;;;;;;;7.80;2.55;;;;;;;;;;4307831;32;316608;-88
2023/10/28 14:17:05;;;;;;;8.95;2.87;;;;;;;;;;4342647;32;317775;-86
2023/10/28 14:19:32;;;;;;;9.40;2.78;;;;;;;;;;4333346;32;317258;-88
2023/10/28 14:22:00;;;;;;;16.52;3.70;;;;;;;;;;4344439;32;317357;-87
2023/10/28 14:24:27;;;;;;;9.80;4.75;;;;;;;;;;4331821;32;374162;-88